createdAt,value
2024-01-27T00:02:02.340Z,101255.05
2024-01-27T00:04:30.144Z,101245.07
2024-01-27T00:06:58.014Z,101248.41
2024-01-27T00:09:25.861Z,101257.89
2024-01-27T00:11:53.793Z,101255.62
2024-01-27T00:14:21.672Z,101259.45
2024-01-27T00:16:49.504Z,101240.91
2024-01-27T00:19:17.575Z,101248.13
2024-01-27T00:21:45.476Z,101261.96
2024-01-27T00:24:14.844Z,101246.73
2024-01-27T00:26:48.239Z,101242.04
2024-01-27T00:29:16.371Z,101249.75
2024-01-27T00:31:44.465Z,101261.02
2024-01-27T00:34:12.463Z,101242.12
2024-01-27T00:36:40.645Z,101229.41
2024-01-27T00:39:08.454Z,101245.80
2024-01-27T00:41:36.291Z,101258.92
2024-01-27T00:44:04.256Z,101249.28
2024-01-27T00:46:32.044Z,101254.52
2024-01-27T00:48:59.998Z,101272.52
2024-01-27T00:51:27.937Z,101246.42
2024-01-27T00:53:56.189Z,101243.95
2024-01-27T00:56:24.905Z,101244.63
2024-01-27T00:58:53.312Z,101241.64
2024-01-27T01:01:21.219Z,101253.56
2024-01-27T01:03:49.173Z,101239.54
2024-01-27T01:06:17.170Z,101242.84
2024-01-27T01:08:45.542Z,101241.03
2024-01-27T01:11:14.075Z,101246.17
2024-01-27T01:13:41.973Z,101246.83
2024-01-27T01:16:10.777Z,101237.90
2024-01-27T01:18:38.721Z,101249.81
2024-01-27T01:21:07.415Z,101252.45
2024-01-27T01:23:35.302Z,101247.21
2024-01-27T01:26:04.273Z,101270.85
2024-01-27T01:28:33.549Z,101239.85
2024-01-27T01:31:02.577Z,101256.67
2024-01-27T01:33:30.575Z,101253.52
2024-01-27T01:35:58.662Z,101247.77
2024-01-27T01:38:26.534Z,101243.40
2024-01-27T01:40:54.843Z,101254.29
2024-01-27T01:43:23.723Z,101257.98
2024-01-27T01:45:53.686Z,101248.64
2024-01-27T01:48:21.715Z,101257.30
2024-01-27T01:50:50.252Z,101237.52
2024-01-27T01:53:18.148Z,101251.55
2024-01-27T01:55:47.762Z,101244.67
2024-01-27T01:58:17.847Z,101270.34
2024-01-27T02:00:47.246Z,101253.00
2024-01-27T02:03:17.322Z,101278.95
2024-01-27T02:05:45.398Z,101249.20
2024-01-27T02:08:13.362Z,101262.21
2024-01-27T02:10:41.304Z,101253.34
2024-01-27T02:13:20.133Z,101264.23
2024-01-27T02:15:48.495Z,101269.04
2024-01-27T02:18:17.211Z,101265.77
2024-01-27T02:20:47.747Z,101263.07
2024-01-27T02:23:15.635Z,101265.44
2024-01-27T02:25:45.861Z,101269.88
2024-01-27T02:28:16.782Z,101309.83
2024-01-27T02:30:44.911Z,101274.11
2024-01-27T02:33:12.820Z,101297.06
2024-01-27T02:35:40.718Z,101288.81
2024-01-27T02:38:08.510Z,101296.52
2024-01-27T02:40:36.408Z,101279.58
2024-01-27T02:43:05.398Z,101296.73
2024-01-27T02:45:33.477Z,101292.40
2024-01-27T02:48:01.437Z,101293.83
2024-01-27T02:50:29.439Z,101294.19
2024-01-27T02:52:57.292Z,101317.65
2024-01-27T02:55:25.136Z,101289.15
2024-01-27T02:57:52.972Z,101314.66
2024-01-27T03:00:23.150Z,101338.19
2024-01-27T03:02:51.031Z,101315.68
2024-01-27T03:05:19.023Z,101307.45
2024-01-27T03:07:46.884Z,101330.19
2024-01-27T03:10:14.791Z,101310.23
2024-01-27T03:12:45.224Z,101331.04
2024-01-27T03:15:13.105Z,101320.65
2024-01-27T03:17:41.026Z,101309.20
2024-01-27T03:20:09.913Z,101333.54
2024-01-27T03:22:37.743Z,101327.56
2024-01-27T03:25:05.985Z,101349.34
2024-01-27T03:27:33.854Z,101328.33
2024-01-27T03:30:03.057Z,101344.16
2024-01-27T03:32:34.551Z,101317.11
2024-01-27T03:35:03.918Z,101338.42
2024-01-27T03:37:34.079Z,101343.05
2024-01-27T03:40:02.573Z,101360.42
2024-01-27T03:42:30.486Z,101348.55
2024-01-27T03:44:58.323Z,101347.83
2024-01-27T03:47:26.148Z,101351.83
2024-01-27T03:49:56.747Z,101370.70
2024-01-27T03:52:25.770Z,101399.86
2024-01-27T03:54:53.602Z,101369.67
2024-01-27T03:57:24.547Z,101383.10
2024-01-27T03:59:52.765Z,101393.11
2024-01-27T04:02:21.019Z,101387.67
2024-01-27T04:04:49.062Z,101394.33
2024-01-27T04:07:18.618Z,101419.84
2024-01-27T04:09:46.605Z,101414.91
2024-01-27T04:12:14.567Z,101428.75
2024-01-27T04:14:42.761Z,101435.06
2024-01-27T04:17:10.610Z,101441.77
2024-01-27T04:19:38.520Z,101438.30
2024-01-27T04:22:06.417Z,101447.98
2024-01-27T04:24:34.359Z,101449.01
2024-01-27T04:27:03.643Z,101451.77
2024-01-27T04:29:31.677Z,101452.85
2024-01-27T04:31:59.533Z,101465.20
2024-01-27T04:34:27.822Z,101494.42
2024-01-27T04:36:55.772Z,101491.88
2024-01-27T04:41:18.400Z,101479.34
2024-01-27T04:44:00.509Z,40601.39
2024-01-27T04:47:00.498Z,50757.53
2024-01-27T04:50:38.235Z,-1.00
2024-01-27T04:56:42.625Z,50764.52
2024-01-27T04:59:10.459Z,101534.63
2024-01-27T05:01:38.322Z,101551.71
2024-01-27T05:04:06.264Z,101548.52
2024-01-27T05:06:36.500Z,101562.03
2024-01-27T05:09:06.050Z,101569.83
2024-01-27T05:11:34.019Z,101580.68
2024-01-27T05:14:01.914Z,101577.70
2024-01-27T05:16:29.852Z,101585.75
2024-01-27T05:18:58.011Z,101596.06
2024-01-27T05:21:28.103Z,101599.90
2024-01-27T05:23:56.200Z,101603.92
2024-01-27T05:26:24.081Z,101608.30
2024-01-27T05:28:52.206Z,101617.55
2024-01-27T05:31:21.294Z,101625.23
2024-01-27T05:33:49.306Z,101636.41
2024-01-27T05:36:17.639Z,101631.84
2024-01-27T05:38:45.595Z,101645.63
2024-01-27T05:41:13.410Z,101648.63
2024-01-27T05:43:41.257Z,101658.02
2024-01-27T05:46:10.495Z,101651.52
2024-01-27T05:48:38.515Z,101665.86
2024-01-27T05:51:06.538Z,101677.91
2024-01-27T05:53:36.363Z,101687.67
2024-01-27T05:56:04.417Z,101681.55
2024-01-27T05:58:34.292Z,101692.20
2024-01-27T06:01:02.234Z,101699.38
2024-01-27T06:03:30.927Z,101713.20
2024-01-27T06:05:58.934Z,101718.10
2024-01-27T06:08:27.376Z,101725.67
2024-01-27T06:10:55.274Z,101733.46
2024-01-27T06:13:23.117Z,101730.66
2024-01-27T06:15:51.992Z,101754.79
2024-01-27T06:18:19.931Z,101740.77
2024-01-27T06:20:47.863Z,101749.70
2024-01-27T06:23:15.649Z,101767.30
2024-01-27T06:25:44.621Z,101771.66
2024-01-27T06:28:14.525Z,101781.46
2024-01-27T06:30:42.311Z,101783.02
2024-01-27T06:33:10.454Z,101788.48
2024-01-27T06:35:38.399Z,101786.52
2024-01-27T06:38:06.409Z,101795.39
2024-01-27T06:40:34.222Z,101805.42
2024-01-27T06:43:04.363Z,101807.27
2024-01-27T06:45:32.574Z,101816.21
2024-01-27T06:48:01.601Z,101812.91
2024-01-27T06:50:29.575Z,101819.30
2024-01-27T06:52:57.647Z,101829.98
2024-01-27T06:55:25.464Z,101829.24
2024-01-27T06:57:53.259Z,101846.39
2024-01-27T07:00:22.066Z,101848.48
2024-01-27T07:02:53.143Z,101857.20
2024-01-27T07:05:22.442Z,101862.60
2024-01-27T07:07:50.972Z,101856.70
2024-01-27T07:10:18.842Z,101870.48
2024-01-27T07:12:46.855Z,101879.21
2024-01-27T07:15:14.906Z,101886.38
2024-01-27T07:17:43.057Z,101891.95
2024-01-27T07:20:11.556Z,101904.89
2024-01-27T07:22:40.473Z,101903.69
2024-01-27T07:25:11.159Z,101915.33
2024-01-27T07:27:39.570Z,101918.70
2024-01-27T07:30:10.498Z,101928.95
2024-01-27T07:32:38.795Z,101938.73
2024-01-27T07:35:07.217Z,101941.52
2024-01-27T07:37:35.107Z,101958.13
2024-01-27T07:40:03.402Z,101957.59
2024-01-27T07:42:31.579Z,101962.48
2024-01-27T07:44:59.708Z,101972.81
2024-01-27T07:47:27.519Z,101977.58
2024-01-27T07:49:57.966Z,101988.92
2024-01-27T07:52:25.901Z,102006.96
2024-01-27T07:54:55.877Z,102012.90
2024-01-27T07:57:23.743Z,102022.88
2024-01-27T07:59:51.704Z,102025.02
2024-01-27T08:02:19.584Z,102034.76
2024-01-27T08:04:47.507Z,102045.33
2024-01-27T08:07:17.349Z,102048.09
2024-01-27T08:09:45.158Z,102056.33
2024-01-27T08:12:13.124Z,102051.14
2024-01-27T08:14:41.022Z,102055.36
2024-01-27T08:17:08.806Z,102061.33
2024-01-27T08:19:37.691Z,102067.98
2024-01-27T08:22:05.580Z,102068.13
2024-01-27T08:24:33.466Z,102071.40
2024-01-27T08:27:02.764Z,102083.27
2024-01-27T08:29:31.102Z,102088.67
2024-01-27T08:31:59.101Z,102086.35
2024-01-27T08:34:27.221Z,102095.42
2024-01-27T08:37:01.447Z,102086.95
2024-01-27T08:39:30.141Z,102085.16
2024-01-27T08:41:57.967Z,102100.34
2024-01-27T08:44:26.981Z,102100.08
2024-01-27T08:46:55.560Z,102105.83
2024-01-27T08:49:24.599Z,102105.23
2024-01-27T08:51:52.442Z,102117.06
2024-01-27T08:54:20.783Z,102124.17
2024-01-27T08:56:48.640Z,102126.08
2024-01-27T08:59:16.454Z,102135.25
2024-01-27T09:01:44.269Z,102144.27
2024-01-27T09:04:12.102Z,102149.66
2024-01-27T09:06:40.036Z,102143.50
2024-01-27T09:09:08.246Z,102146.81
2024-01-27T09:11:36.087Z,102154.98
2024-01-27T09:14:06.175Z,102164.79
2024-01-27T09:16:34.160Z,102166.65
2024-01-27T09:19:02.192Z,102173.30
2024-01-27T09:21:31.780Z,102168.52
2024-01-27T09:24:00.090Z,102185.43
2024-01-27T09:26:28.108Z,102198.50
2024-01-27T09:28:56.086Z,102191.16
2024-01-27T09:31:24.466Z,102215.65
2024-01-27T09:33:56.098Z,102215.55
2024-01-27T09:36:24.514Z,102219.50
2024-01-27T09:38:53.489Z,102217.91
2024-01-27T09:41:21.845Z,102231.17
2024-01-27T09:43:49.722Z,102236.00
2024-01-27T09:46:18.897Z,102243.48
2024-01-27T09:48:47.069Z,102241.48
2024-01-27T09:51:15.706Z,102244.38
2024-01-27T09:53:43.600Z,102247.42
2024-01-27T09:56:11.518Z,102246.27
2024-01-27T09:58:39.793Z,102249.50
2024-01-27T10:01:07.920Z,102245.41
2024-01-27T10:03:35.949Z,102247.18
2024-01-27T10:06:04.043Z,102249.34
2024-01-27T10:08:31.988Z,102257.13
2024-01-27T10:10:59.903Z,102271.30
2024-01-27T10:13:27.930Z,102270.96
2024-01-27T10:16:03.362Z,102270.75
2024-01-27T10:18:31.766Z,102277.30
2024-01-27T10:20:59.768Z,102281.11
2024-01-27T10:23:27.877Z,102290.59
2024-01-27T10:25:58.464Z,102291.23
2024-01-27T10:28:29.613Z,102287.13
2024-01-27T10:31:11.863Z,102288.54
2024-01-27T10:33:40.363Z,102283.66
2024-01-27T10:36:09.643Z,102284.95
2024-01-27T10:38:38.900Z,102291.31
2024-01-27T10:41:13.439Z,102303.03
2024-01-27T10:43:41.290Z,102308.80
2024-01-27T10:46:09.565Z,102301.34
2024-01-27T10:48:38.001Z,102310.68
2024-01-27T10:51:09.342Z,102310.25
2024-01-27T10:53:38.405Z,102316.46
2024-01-27T10:56:10.279Z,102320.54
2024-01-27T10:58:44.336Z,102330.25
2024-01-27T11:01:13.270Z,102327.88
2024-01-27T11:03:41.766Z,102329.96
2024-01-27T11:06:12.001Z,102339.77
2024-01-27T11:08:43.759Z,102339.98
2024-01-27T11:11:12.260Z,102347.23
2024-01-27T11:13:40.542Z,102345.12
2024-01-27T11:16:16.492Z,102347.98
2024-01-27T11:18:45.642Z,102350.94
2024-01-27T11:21:18.012Z,102355.55
2024-01-27T11:23:48.857Z,102356.77
2024-01-27T11:26:23.897Z,102366.02
2024-01-27T11:28:56.878Z,102372.98
2024-01-27T11:31:24.750Z,102379.80
2024-01-27T11:34:01.255Z,102387.60
2024-01-27T11:36:29.562Z,102385.19
2024-01-27T11:39:04.873Z,102393.59
2024-01-27T11:41:32.731Z,102395.91
2024-01-27T11:44:03.988Z,102404.42
2024-01-27T11:46:31.840Z,102410.14
2024-01-27T11:48:59.845Z,102407.77
2024-01-27T11:51:27.847Z,102408.23
2024-01-27T11:53:56.756Z,102405.58
2024-01-27T11:56:24.790Z,102416.60
2024-01-27T11:58:52.956Z,102412.64
2024-01-27T12:01:21.007Z,102416.33
2024-01-27T12:03:49.949Z,102420.86
2024-01-27T12:06:19.319Z,102424.71
2024-01-27T12:08:50.362Z,102438.23
2024-01-27T12:11:22.117Z,102443.80
2024-01-27T12:13:53.690Z,102434.06
2024-01-27T12:16:23.121Z,102443.48
2024-01-27T12:18:56.055Z,102440.77
2024-01-27T12:21:25.025Z,102438.05
2024-01-27T12:23:53.305Z,102440.34
2024-01-27T12:26:29.127Z,102445.06
2024-01-27T12:28:57.436Z,102446.50
2024-01-27T12:31:25.441Z,102451.89
2024-01-27T12:33:57.378Z,102458.88
2024-01-27T12:36:28.698Z,102467.50
2024-01-27T12:39:01.354Z,102471.02
2024-01-27T12:41:29.550Z,102472.39
2024-01-27T12:43:57.595Z,102470.48
2024-01-27T12:46:25.401Z,102467.55
2024-01-27T12:48:54.340Z,102467.16
2024-01-27T12:51:22.403Z,102476.98
2024-01-27T12:53:51.249Z,102486.72
2024-01-27T12:56:20.631Z,102492.19
2024-01-27T12:58:48.495Z,102497.30
2024-01-27T13:01:16.901Z,102502.17
2024-01-27T13:03:46.729Z,102495.40
2024-01-27T13:06:15.283Z,102495.13
2024-01-27T13:08:45.240Z,102512.05
2024-01-27T13:11:14.570Z,102512.04
2024-01-27T13:13:42.717Z,102515.42
2024-01-27T13:16:10.852Z,102522.95
2024-01-27T13:18:39.205Z,102529.64
2024-01-27T13:21:07.436Z,102523.38
2024-01-27T13:23:35.433Z,102530.88
2024-01-27T13:26:13.924Z,102531.83
2024-01-27T13:28:51.639Z,102547.11
2024-01-27T13:31:19.789Z,102551.43
2024-01-27T13:33:49.920Z,102552.08
2024-01-27T13:36:18.297Z,102559.59
2024-01-27T13:38:46.246Z,102550.73
2024-01-27T13:41:14.896Z,102554.21
2024-01-27T13:43:42.985Z,102541.02
2024-01-27T13:46:11.535Z,102536.76
2024-01-27T13:48:41.599Z,102548.00
2024-01-27T13:51:12.136Z,102548.34
2024-01-27T13:53:46.811Z,102563.73
2024-01-27T13:56:16.175Z,102564.52
2024-01-27T13:58:46.274Z,102585.45
2024-01-27T14:01:14.312Z,102577.63
2024-01-27T14:03:42.394Z,102588.73
2024-01-27T14:06:14.173Z,102610.48
2024-01-27T14:08:44.407Z,102602.69
2024-01-27T14:11:13.029Z,102597.67
2024-01-27T14:13:40.920Z,102599.52
2024-01-27T14:16:08.722Z,102611.11
2024-01-27T14:18:36.827Z,102609.09
2024-01-27T14:21:07.105Z,102621.39
2024-01-27T14:23:35.590Z,102616.20
2024-01-27T14:26:03.558Z,102628.66
2024-01-27T14:28:31.362Z,102641.98
2024-01-27T14:30:59.742Z,102639.67
2024-01-27T14:33:28.714Z,102648.08
2024-01-27T14:35:56.692Z,102658.92
2024-01-27T14:38:24.912Z,102663.54
2024-01-27T14:40:52.675Z,102666.05
2024-01-27T14:43:20.486Z,102668.74
2024-01-27T14:45:48.596Z,102675.84
2024-01-27T14:48:19.230Z,102679.04
2024-01-27T14:50:50.088Z,102689.41
2024-01-27T14:53:17.928Z,102689.98
2024-01-27T14:55:46.366Z,102689.48
2024-01-27T14:58:14.181Z,102694.42
2024-01-27T15:00:42.103Z,102702.72
2024-01-27T15:03:10.915Z,102696.96
2024-01-27T15:05:41.698Z,102694.96
2024-01-27T15:08:09.498Z,102696.73
2024-01-27T15:10:38.596Z,102699.91
2024-01-27T15:13:06.846Z,102697.65
2024-01-27T15:15:34.838Z,102703.47
2024-01-27T15:18:20.324Z,102698.05
2024-01-27T15:20:48.336Z,102713.66
2024-01-27T15:23:16.113Z,102712.27
2024-01-27T15:25:45.827Z,102716.48
2024-01-27T15:28:13.668Z,102721.04
2024-01-27T15:30:43.290Z,102716.30
2024-01-27T15:33:11.508Z,102712.85
2024-01-27T15:35:41.251Z,102715.81
2024-01-27T15:38:11.285Z,102712.32
2024-01-27T15:40:39.129Z,102707.38
2024-01-27T15:43:07.054Z,102702.30
2024-01-27T15:45:35.015Z,102708.60
2024-01-27T15:48:03.135Z,102711.92
2024-01-27T15:50:33.365Z,102719.10
2024-01-27T15:53:04.107Z,102716.81
2024-01-27T15:55:34.500Z,102724.70
2024-01-27T15:58:05.196Z,102726.64
2024-01-27T16:00:33.071Z,102733.29
2024-01-27T16:03:00.919Z,102730.49
2024-01-27T16:05:29.023Z,102738.03
2024-01-27T16:07:56.836Z,102733.73
2024-01-27T16:10:24.672Z,102742.31
2024-01-27T16:12:52.607Z,102745.98
2024-01-27T16:15:20.465Z,102761.04
2024-01-27T16:17:48.432Z,102759.11
2024-01-27T16:20:17.225Z,102762.09
2024-01-27T16:22:44.987Z,102765.23
2024-01-27T16:25:13.068Z,102765.94
2024-01-27T16:27:43.241Z,102764.54
2024-01-27T16:30:11.745Z,102761.04
2024-01-27T16:32:39.565Z,102762.42
2024-01-27T16:35:09.429Z,102774.69
2024-01-27T16:37:37.384Z,102772.08
2024-01-27T16:40:05.689Z,102770.55
2024-01-27T16:42:36.479Z,102779.46
2024-01-27T16:45:07.886Z,102783.50
2024-01-27T16:47:35.909Z,102787.34
2024-01-27T16:50:04.963Z,102793.30
2024-01-27T16:52:34.235Z,102796.84
2024-01-27T16:55:04.502Z,102795.10
2024-01-27T16:57:33.360Z,102799.31
2024-01-27T17:00:01.305Z,102800.54
2024-01-27T17:02:29.470Z,102800.39
2024-01-27T17:05:03.681Z,102802.14
2024-01-27T17:07:33.623Z,102811.80
2024-01-27T17:10:06.189Z,102796.98
2024-01-27T17:12:34.391Z,102806.08
2024-01-27T17:15:02.568Z,102806.09
2024-01-27T17:17:30.552Z,102807.86
2024-01-27T17:20:00.418Z,102809.11
2024-01-27T17:22:30.615Z,102806.34
2024-01-27T17:25:02.904Z,102800.95
2024-01-27T17:27:30.993Z,102814.25
2024-01-27T17:29:59.924Z,102819.87
2024-01-27T17:32:29.833Z,102820.25
2024-01-27T17:35:00.077Z,102825.34
2024-01-27T17:37:28.146Z,102832.53
2024-01-27T17:40:00.519Z,102828.88
2024-01-27T17:42:28.365Z,102828.19
2024-01-27T17:44:56.195Z,102831.02
2024-01-27T17:47:24.041Z,102838.55
2024-01-27T17:49:53.016Z,102837.66
2024-01-27T17:52:20.810Z,102840.65
2024-01-27T17:54:48.775Z,102840.13
2024-01-27T17:57:16.765Z,102844.87
2024-01-27T17:59:45.380Z,102838.92
2024-01-27T18:02:13.168Z,102836.82
2024-01-27T18:04:42.036Z,102842.98
2024-01-27T18:07:10.410Z,102849.08
2024-01-27T18:09:38.261Z,102854.69
2024-01-27T18:12:10.053Z,102854.86
2024-01-27T18:14:38.214Z,102861.50
2024-01-27T18:17:06.046Z,102860.63
2024-01-27T18:19:33.858Z,102856.25
2024-01-27T18:22:05.302Z,102859.92
2024-01-27T18:24:32.998Z,102861.70
2024-01-27T18:27:01.267Z,102866.77
2024-01-27T18:29:30.541Z,102874.67
2024-01-27T18:31:59.950Z,102870.14
2024-01-27T18:34:28.406Z,102876.10
2024-01-27T18:36:56.389Z,102873.65
2024-01-27T18:39:24.504Z,102876.98
2024-01-27T18:41:52.345Z,102876.29
2024-01-27T18:44:21.901Z,102867.92
2024-01-27T18:46:49.761Z,102882.24
2024-01-27T18:49:18.997Z,102884.71
2024-01-27T18:51:47.366Z,102888.74
2024-01-27T18:54:17.871Z,102893.80
2024-01-27T18:56:46.540Z,102894.31
2024-01-27T18:59:14.349Z,102895.88
2024-01-27T19:01:42.313Z,102899.02
2024-01-27T19:04:10.374Z,102900.42
2024-01-27T19:06:38.363Z,102906.71
2024-01-27T19:09:06.979Z,102906.89
2024-01-27T19:11:34.891Z,102913.02
2024-01-27T19:14:02.730Z,102912.66
2024-01-27T19:16:30.552Z,102906.73
2024-01-27T19:18:58.989Z,102904.44
2024-01-27T19:21:26.944Z,102914.73
2024-01-27T19:23:55.773Z,102911.39
2024-01-27T19:26:23.745Z,102915.59
2024-01-27T19:28:51.795Z,102919.45
2024-01-27T19:31:19.681Z,102925.02
2024-01-27T19:33:47.587Z,102921.52
2024-01-27T19:36:15.540Z,102924.14
2024-01-27T19:38:44.657Z,102922.36
2024-01-27T19:41:18.796Z,102917.98
2024-01-27T19:43:48.756Z,102918.33
2024-01-27T19:46:18.856Z,102916.04
2024-01-27T19:48:47.229Z,102915.86
2024-01-27T19:51:15.224Z,102919.88
2024-01-27T19:53:43.318Z,102924.95
2024-01-27T19:56:11.328Z,102925.11
2024-01-27T19:58:39.453Z,102927.17
2024-01-27T20:01:07.260Z,102922.09
2024-01-27T20:03:38.139Z,102921.57
2024-01-27T20:06:06.210Z,102920.87
2024-01-27T20:08:34.054Z,102926.11
2024-01-27T20:11:01.884Z,102926.80
2024-01-27T20:13:29.713Z,102923.83
2024-01-27T20:15:57.566Z,102931.17
2024-01-27T20:18:25.645Z,102933.27
2024-01-27T20:20:54.502Z,102939.38
2024-01-27T20:23:22.649Z,102936.39
2024-01-27T20:25:52.373Z,102945.13
2024-01-27T20:28:22.795Z,102944.95
2024-01-27T20:30:52.668Z,102943.89
2024-01-27T20:33:27.922Z,102948.27
2024-01-27T20:36:02.012Z,102952.11
2024-01-27T20:38:30.438Z,102953.49
2024-01-27T20:40:58.225Z,102953.82
2024-01-27T20:43:26.213Z,102952.95
2024-01-27T20:45:53.983Z,102950.83
2024-01-27T20:48:23.969Z,102943.33
2024-01-27T20:50:52.623Z,102952.05
2024-01-27T20:53:20.468Z,102954.85
2024-01-27T20:55:51.982Z,102952.92
2024-01-27T20:58:20.479Z,102954.32
2024-01-27T21:00:49.218Z,102957.30
2024-01-27T21:03:20.546Z,102966.05
2024-01-27T21:05:48.501Z,102967.45
2024-01-27T21:08:16.275Z,102959.79
2024-01-27T21:10:44.256Z,102963.41
2024-01-27T21:13:12.143Z,102965.14
2024-01-27T21:15:40.008Z,102963.39
2024-01-27T21:18:08.111Z,102966.52
2024-01-27T21:20:35.974Z,102965.64
2024-01-27T21:23:03.977Z,102968.44
2024-01-27T21:25:31.755Z,102973.70
2024-01-27T21:27:59.602Z,102968.95
2024-01-27T21:30:27.502Z,102958.27
2024-01-27T21:32:57.048Z,102957.20
2024-01-27T21:35:25.079Z,102962.60
2024-01-27T21:37:53.013Z,102966.45
2024-01-27T21:40:21.144Z,102973.27
2024-01-27T21:42:49.142Z,102981.67
2024-01-27T21:45:17.133Z,102984.98
2024-01-27T21:47:45.981Z,102981.66
2024-01-27T21:50:16.954Z,102981.14
2024-01-27T21:52:44.899Z,102977.80
2024-01-27T21:55:12.746Z,102977.58
2024-01-27T21:57:40.546Z,102978.27
2024-01-27T22:00:10.992Z,102980.20
2024-01-27T22:02:41.811Z,102982.65
2024-01-27T22:05:13.430Z,102984.58
2024-01-27T22:07:41.488Z,102982.81
2024-01-27T22:10:11.807Z,102976.16
2024-01-27T22:12:39.763Z,102983.48
2024-01-27T22:15:08.590Z,102979.96
2024-01-27T22:17:38.875Z,102976.98
2024-01-27T22:20:08.814Z,102977.85
2024-01-27T22:22:39.693Z,102974.33
2024-01-27T22:25:09.194Z,102978.36
2024-01-27T22:27:39.083Z,102977.46
2024-01-27T22:30:11.152Z,102972.90
2024-01-27T22:32:39.973Z,102974.25
2024-01-27T22:35:08.604Z,102970.73
2024-01-27T22:37:36.635Z,102974.40
2024-01-27T22:40:04.799Z,102983.11
2024-01-27T22:42:34.688Z,102985.90
2024-01-27T22:45:04.012Z,102982.92
2024-01-27T22:47:32.114Z,102986.77
2024-01-27T22:49:59.965Z,102990.08
2024-01-27T22:52:32.032Z,102991.10
2024-01-27T22:55:00.070Z,103003.35
2024-01-27T22:57:27.980Z,103010.01
2024-01-27T22:59:57.458Z,103009.48
2024-01-27T23:02:25.257Z,103013.31
2024-01-27T23:04:54.265Z,103013.48
2024-01-27T23:07:22.504Z,103015.75
2024-01-27T23:09:50.407Z,103019.09
2024-01-27T23:12:19.299Z,103024.67
2024-01-27T23:14:47.594Z,103020.96
2024-01-27T23:17:15.946Z,103023.59
2024-01-27T23:19:44.152Z,103023.41
2024-01-27T23:22:12.718Z,103022.01
2024-01-27T23:24:40.593Z,103014.48
2024-01-27T23:27:09.493Z,103014.63
2024-01-27T23:29:38.815Z,103019.54
2024-01-27T23:32:08.031Z,103019.52
2024-01-27T23:34:36.156Z,103018.84
2024-01-27T23:37:06.516Z,103019.00
2024-01-27T23:39:34.393Z,103021.98
2024-01-27T23:42:02.502Z,103018.64
2024-01-27T23:44:33.325Z,103015.31
2024-01-27T23:47:03.770Z,103015.13
2024-01-27T23:49:31.731Z,103013.52
2024-01-27T23:52:02.879Z,103009.51
2024-01-27T23:54:31.386Z,103008.06
2024-01-27T23:56:59.219Z,103007.72
2024-01-27T23:59:27.107Z,103006.48
